Flight Briefing for CPX246

Departure Arrival
Benito Juárez International Airport (MMMX)
Click to view FAA NOTAMS
Los Angeles International Airport (KLAX)
Click to view FAA NOTAMS
Departure Time Arrival Time
N/A N/A
Aircraft Distance
B767-300BDSF 1351nm
Departure METAR Arrival METAR
MMMX 221142Z 06005KT 7SM SKC 10/08 A3034 NOSIG RMK SLP125 57005 957 HZY KLAX 221153Z 00000KT 10SM FEW016 FEW026 SCT140 SCT200 10/07 A3014 RMK AO2 SLP204 70002 T01000067 10133 20100 55008
Suggested Route
PPE J93 ASUTA AMMOR OLAAA1


View recent IFR Routes data
Notes



Charts and Procedures

Charts for MMMX
No chart available
Charts for KLAX
No chart available

Windy.com Weather Map